Time;durP1;ratioP1;P1;durP2;ratioP2;P2;SDS_P1;SDS_P2;PMS_P1;PMS_P2;Temp;Humidity;BMP_temperature;BMP_pressure;BME280_temperature;BME280_humidity;BME280_pressure;Samples;Min_cycle;Max_cycle;Signal;HPM_P1;HPM_P2
2022/04/07 00:01:27;;;;;;;12.07;5.57;;;9.00;99.90;;;;;;5078389;28;20049;-67
2022/04/07 00:03:53;;;;;;;18.75;6.03;;;9.00;99.90;;;;;;5079587;28;20037;-69
2022/04/07 00:06:19;;;;;;;17.50;5.00;;;9.00;99.90;;;;;;5077607;28;20040;-67
2022/04/07 00:08:45;;;;;;;13.85;5.25;;;9.60;99.90;;;;;;5077854;28;20402;-66
2022/04/07 00:11:11;;;;;;;12.50;5.10;;;9.00;99.90;;;;;;5084427;28;20364;-66
2022/04/07 00:13:37;;;;;;;16.35;4.57;;;9.40;99.90;;;;;;5078747;28;20842;-67
2022/04/07 00:16:03;;;;;;;14.27;4.90;;;9.00;99.90;;;;;;5080794;28;20063;-67
2022/04/07 00:18:29;;;;;;;16.30;4.63;;;9.00;99.90;;;;;;5086761;28;20072;-68
2022/04/07 00:20:55;;;;;;;10.95;4.35;;;8.90;99.90;;;;;;5079235;28;20371;-67
2022/04/07 00:23:22;;;;;;;11.13;4.30;;;9.00;99.90;;;;;;5081441;28;20044;-68
2022/04/07 00:25:48;;;;;;;15.48;4.50;;;9.00;99.90;;;;;;5071534;28;20093;-67
2022/04/07 00:28:14;;;;;;;13.68;3.92;;;9.00;99.90;;;;;;5083512;28;20485;-67
2022/04/07 00:30:40;;;;;;;15.23;4.10;;;8.90;99.90;;;;;;5076928;28;20050;-68
2022/04/07 00:33:10;;;;;;;13.25;3.75;;;8.90;99.90;;;;;;5087136;28;20429;-68
2022/04/07 00:35:38;;;;;;;17.58;3.72;;;8.90;99.90;;;;;;5079250;28;20060;-67
2022/04/07 00:38:04;;;;;;;11.43;2.67;;;8.80;99.90;;;;;;5083476;28;20059;-68
2022/04/07 00:40:31;;;;;;;11.70;2.90;;;8.90;99.90;;;;;;5083403;28;20048;-67
2022/04/07 00:42:57;;;;;;;10.10;2.50;;;8.90;99.90;;;;;;5075275;28;20135;-67
2022/04/07 00:45:24;;;;;;;9.13;2.45;;;8.80;99.90;;;;;;5085472;28;20139;-68
2022/04/07 00:47:51;;;;;;;9.77;2.55;;;8.80;99.90;;;;;;5074591;28;20048;-67
2022/04/07 00:50:19;;;;;;;7.85;2.47;;;8.80;99.90;;;;;;5077211;28;20038;-67
2022/04/07 00:52:49;;;;;;;13.53;3.77;;;8.90;99.90;;;;;;5082599;28;20489;-68
2022/04/07 00:55:15;;;;;;;10.98;2.45;;;8.80;99.90;;;;;;5085390;28;20294;-67
2022/04/07 00:57:42;;;;;;;14.60;3.50;;;8.80;99.90;;;;;;5084903;28;20047;-67
2022/04/07 01:00:09;;;;;;;13.85;3.17;;;8.80;99.90;;;;;;5088750;28;20065;-68
2022/04/07 01:02:36;;;;;;;13.93;3.28;;;8.80;99.90;;;;;;5077795;28;20040;-67
2022/04/07 01:05:06;;;;;;;18.45;3.20;;;8.80;99.90;;;;;;5075406;28;20042;-67
2022/04/07 01:07:39;;;;;;;14.20;2.88;;;8.80;99.90;;;;;;5087921;28;20062;-67
2022/04/07 01:10:08;;;;;;;19.23;4.05;;;8.80;99.90;;;;;;5076437;28;20445;-67
2022/04/07 01:12:34;;;;;;;21.23;3.83;;;8.80;99.90;;;;;;5079431;28;20047;-68
2022/04/07 01:15:05;;;;;;;16.60;3.63;;;8.90;99.90;;;;;;5073737;28;20080;-68
2022/04/07 01:17:32;;;;;;;18.63;3.50;;;8.80;99.90;;;;;;5083294;28;20047;-67
2022/04/07 01:19:58;;;;;;;18.33;3.42;;;8.90;99.90;;;;;;5082771;28;20036;-67
2022/04/07 01:22:23;;;;;;;23.02;3.78;;;8.80;99.90;;;;;;5065387;28;20052;-67
2022/04/07 01:24:49;;;;;;;14.65;3.15;;;8.90;99.90;;;;;;5076103;28;20045;-67
2022/04/07 01:27:17;;;;;;;15.07;3.42;;;8.80;99.90;;;;;;5079750;28;20070;-67
2022/04/07 01:29:43;;;;;;;21.42;3.75;;;8.80;99.90;;;;;;5077058;28;20094;-68
2022/04/07 01:32:23;;;;;;;14.63;3.72;;;8.90;99.90;;;;;;5073934;28;20085;-68
2022/04/07 01:34:49;;;;;;;20.67;4.38;;;8.70;99.90;;;;;;5077748;28;20054;-67
2022/04/07 01:37:18;;;;;;;22.70;4.28;;;8.70;99.90;;;;;;5082905;28;20048;-67
2022/04/07 01:39:47;;;;;;;15.88;4.20;;;8.60;99.90;;;;;;5057896;28;20051;-66
2022/04/07 01:42:14;;;;;;;13.10;3.92;;;8.50;99.90;;;;;;5077260;28;20055;-68
2022/04/07 01:44:52;;;;;;;18.35;3.90;;;8.50;99.90;;;;;;5078558;28;20041;-68
2022/04/07 01:47:21;;;;;;;16.77;4.00;;;8.50;99.90;;;;;;5077869;28;20062;-67
2022/04/07 01:49:56;;;;;;;26.02;5.32;;;8.50;99.90;;;;;;5085961;28;20119;-68
2022/04/07 01:52:23;;;;;;;27.35;4.63;;;8.50;99.90;;;;;;5078017;28;20052;-67
2022/04/07 01:54:50;;;;;;;24.98;5.10;;;8.40;99.90;;;;;;5085738;28;20118;-67
2022/04/07 01:57:20;;;;;;;24.40;5.38;;;8.50;99.90;;;;;;5084473;28;20036;-68
2022/04/07 01:59:46;;;;;;;26.70;5.38;;;8.50;99.90;;;;;;5083088;28;20113;-68
2022/04/07 02:02:11;;;;;;;25.83;5.65;;;8.50;99.90;;;;;;5079707;28;20800;-67
2022/04/07 02:04:58;;;;;;;24.83;5.22;;;8.60;99.90;;;;;;5084931;28;20097;-66
2022/04/07 02:07:29;;;;;;;24.42;6.57;;;9.40;99.90;;;;;;5080314;28;20045;-68
2022/04/07 02:09:55;;;;;;;23.80;5.68;;;9.10;99.90;;;;;;5078263;28;20079;-68
2022/04/07 02:12:21;;;;;;;27.85;6.03;;;8.50;99.90;;;;;;5088698;28;20047;-68
2022/04/07 02:14:50;;;;;;;25.02;5.82;;;8.50;99.90;;;;;;5081475;28;20032;-68
2022/04/07 02:17:20;;;;;;;22.70;5.07;;;8.50;99.90;;;;;;5084080;28;20099;-66
2022/04/07 02:19:49;;;;;;;26.27;5.93;;;9.50;99.90;;;;;;5080515;28;20047;-68
2022/04/07 02:22:14;;;;;;;23.77;4.82;;;8.50;99.90;;;;;;5093027;28;20123;-67
2022/04/07 02:24:41;;;;;;;39.33;5.50;;;8.60;99.90;;;;;;5076454;28;20175;-67
2022/04/07 02:27:08;;;;;;;22.55;5.53;;;8.50;99.90;;;;;;5079341;28;20052;-66
2022/04/07 02:29:35;;;;;;;24.95;4.88;;;8.40;99.90;;;;;;5081486;28;20051;-65
2022/04/07 02:32:01;;;;;;;25.05;4.75;;;8.40;99.90;;;;;;5080256;28;20067;-68
2022/04/07 02:34:28;;;;;;;22.25;4.60;;;8.40;99.90;;;;;;5072136;28;20045;-67
2022/04/07 02:36:53;;;;;;;28.80;5.10;;;8.40;99.90;;;;;;5074903;28;20055;-67
2022/04/07 02:39:19;;;;;;;25.02;4.15;;;8.40;99.90;;;;;;5078799;28;20037;-66
2022/04/07 02:41:47;;;;;;;28.27;4.70;;;8.50;99.90;;;;;;5084664;28;20048;-67
2022/04/07 02:44:13;;;;;;;29.05;5.80;;;8.50;99.90;;;;;;5081599;28;20044;-67
2022/04/07 02:46:41;;;;;;;17.88;4.35;;;8.50;99.90;;;;;;5084755;28;20071;-66
2022/04/07 02:49:07;;;;;;;19.58;4.22;;;8.50;99.90;;;;;;5063467;28;20052;-67
2022/04/07 02:51:34;;;;;;;23.45;5.00;;;8.50;99.90;;;;;;5073195;28;20040;-67
2022/04/07 02:54:00;;;;;;;23.93;5.17;;;8.70;99.90;;;;;;5070265;28;20556;-66
2022/04/07 02:56:27;;;;;;;29.58;4.97;;;8.80;99.90;;;;;;5078025;28;20044;-67
2022/04/07 02:58:53;;;;;;;27.58;4.80;;;8.60;99.90;;;;;;5076877;28;20041;-67
2022/04/07 03:01:19;;;;;;;26.15;5.28;;;8.60;99.90;;;;;;5083279;28;20474;-68
2022/04/07 03:03:45;;;;;;;22.23;5.30;;;8.50;99.90;;;;;;5077928;28;20466;-67
2022/04/07 03:06:11;;;;;;;21.23;4.68;;;8.50;99.90;;;;;;5074360;28;20123;-68
2022/04/07 03:08:38;;;;;;;20.17;5.45;;;8.50;99.90;;;;;;5071965;28;20131;-67
2022/04/07 03:11:05;;;;;;;19.25;6.13;;;8.50;99.90;;;;;;5070152;28;20074;-67
2022/04/07 03:13:31;;;;;;;20.05;4.97;;;8.50;99.90;;;;;;5093745;28;20401;-66
2022/04/07 03:15:57;;;;;;;21.02;6.18;;;8.50;99.90;;;;;;5078972;28;20052;-68
2022/04/07 03:18:23;;;;;;;27.13;5.93;;;8.50;99.90;;;;;;5089539;28;20037;-68
2022/04/07 03:20:48;;;;;;;28.77;6.15;;;8.60;99.90;;;;;;5093592;28;20510;-68
2022/04/07 03:23:16;;;;;;;24.02;6.07;;;8.50;99.90;;;;;;5091231;28;20028;-67
2022/04/07 03:25:41;;;;;;;18.58;5.50;;;8.50;99.90;;;;;;5080028;28;20056;-67
2022/04/07 03:28:07;;;;;;;22.17;5.35;;;8.50;99.90;;;;;;5091478;28;20044;-68
2022/04/07 03:30:33;;;;;;;24.55;5.50;;;8.30;99.90;;;;;;5085334;28;20060;-68
2022/04/07 03:32:59;;;;;;;23.30;6.10;;;8.50;99.90;;;;;;5087019;28;20134;-67
2022/04/07 03:35:25;;;;;;;27.63;7.03;;;8.50;99.90;;;;;;5083668;28;20490;-68
2022/04/07 03:37:51;;;;;;;21.92;6.80;;;8.50;99.90;;;;;;5082869;28;20505;-68
2022/04/07 03:40:17;;;;;;;16.80;4.82;;;8.50;99.90;;;;;;5080578;28;20055;-67
2022/04/07 03:42:44;;;;;;;18.45;4.60;;;8.50;99.90;;;;;;5080641;28;20074;-67
2022/04/07 03:45:13;;;;;;;25.58;6.57;;;8.60;99.90;;;;;;5091565;28;20460;-67
2022/04/07 03:47:39;;;;;;;;;;;8.50;99.90;;;;;;5086489;28;20044;-66
2022/04/07 03:50:05;;;;;;;22.30;5.78;;;8.60;99.90;;;;;;5087393;28;19920;-67
2022/04/07 03:52:30;;;;;;;21.60;5.10;;;8.60;99.90;;;;;;5079908;28;20043;-69
2022/04/07 03:54:56;;;;;;;22.95;5.00;;;8.60;99.90;;;;;;5081631;28;20119;-68
2022/04/07 03:57:25;;;;;;;24.35;4.90;;;8.60;99.90;;;;;;5083187;28;20440;-67
2022/04/07 03:59:50;;;;;;;18.92;4.28;;;8.60;99.90;;;;;;5081868;28;20052;-68
2022/04/07 04:02:16;;;;;;;17.42;4.20;;;8.60;99.90;;;;;;5082118;28;20438;-67
2022/04/07 04:04:42;;;;;;;19.58;4.53;;;8.60;99.90;;;;;;5088743;28;20040;-69
2022/04/07 04:07:07;;;;;;;19.02;4.03;;;8.60;99.90;;;;;;5083706;28;20542;-67
2022/04/07 04:09:35;;;;;;;27.25;4.25;;;8.60;99.90;;;;;;5076498;28;20052;-68
2022/04/07 04:12:00;;;;;;;26.30;4.90;;;8.60;99.90;;;;;;5078214;28;20032;-68
2022/04/07 04:14:26;;;;;;;18.50;4.82;;;8.60;99.90;;;;;;5081674;28;20150;-67
2022/04/07 04:16:52;;;;;;;26.15;4.85;;;8.60;99.90;;;;;;5081063;28;20049;-69
2022/04/07 04:19:18;;;;;;;21.60;4.22;;;8.60;99.90;;;;;;5080308;28;20044;-67
2022/04/07 04:21:43;;;;;;;29.58;4.85;;;8.80;99.90;;;;;;5077931;28;20173;-68
2022/04/07 04:24:12;;;;;;;27.15;4.72;;;8.60;99.90;;;;;;5080081;28;20040;-68
2022/04/07 04:26:38;;;;;;;26.92;5.10;;;8.60;99.90;;;;;;5087401;28;20037;-67
2022/04/07 04:29:05;;;;;;;29.42;4.97;;;8.60;99.90;;;;;;5078967;28;20074;-68
2022/04/07 04:31:31;;;;;;;18.63;4.50;;;8.50;99.90;;;;;;5084352;28;20048;-69
2022/04/07 04:33:57;;;;;;;30.08;5.43;;;9.50;99.90;;;;;;5085925;28;20043;-69
2022/04/07 04:36:23;;;;;;;18.85;3.88;;;9.10;99.90;;;;;;5082965;28;20048;-68
2022/04/07 04:38:55;;;;;;;27.95;3.85;;;8.50;99.90;;;;;;5081930;28;20040;-68
2022/04/07 04:41:21;;;;;;;24.83;4.95;;;8.50;99.90;;;;;;5084715;28;20453;-68
2022/04/07 04:43:46;;;;;;;27.05;5.03;;;8.50;99.90;;;;;;5080411;28;20476;-68
2022/04/07 04:46:12;;;;;;;29.52;4.90;;;8.40;99.90;;;;;;5090599;28;20072;-67
2022/04/07 04:48:41;;;;;;;29.13;5.13;;;8.40;99.90;;;;;;5084405;28;20123;-69
2022/04/07 04:51:11;;;;;;;23.88;4.90;;;8.40;99.90;;;;;;5079779;28;20162;-68
2022/04/07 04:53:37;;;;;;;39.60;5.32;;;8.50;99.90;;;;;;5090724;28;20076;-68
2022/04/07 04:56:02;;;;;;;29.88;5.38;;;8.40;99.90;;;;;;5072757;28;20442;-68
2022/04/07 04:58:31;;;;;;;30.48;5.20;;;8.40;99.90;;;;;;5080300;28;20051;-68
2022/04/07 05:00:57;;;;;;;;;;;8.40;99.90;;;;;;5082036;28;20124;-68
2022/04/07 05:03:26;;;;;;;28.75;5.32;;;8.40;99.90;;;;;;5076848;28;19920;-67
2022/04/07 05:05:52;;;;;;;30.35;5.82;;;8.40;99.90;;;;;;5080163;28;20057;-68
2022/04/07 05:08:20;;;;;;;32.35;5.70;;;8.30;99.90;;;;;;5083407;28;20041;-67
2022/04/07 05:10:46;;;;;;;23.10;5.32;;;8.30;99.90;;;;;;5080559;28;20047;-69
2022/04/07 05:13:12;;;;;;;34.83;5.93;;;8.30;99.90;;;;;;5079916;28;20047;-69
2022/04/07 05:15:39;;;;;;;35.83;5.47;;;8.30;99.90;;;;;;5085453;28;20135;-67
2022/04/07 05:18:05;;;;;;;35.47;5.10;;;8.30;99.90;;;;;;5082885;28;20131;-68
2022/04/07 05:20:31;;;;;;;28.75;5.60;;;8.30;99.90;;;;;;5087005;28;20044;-68
2022/04/07 05:22:57;;;;;;;30.80;5.30;;;8.30;99.90;;;;;;5067446;28;20056;-69
2022/04/07 05:25:23;;;;;;;22.95;4.70;;;8.50;99.90;;;;;;5080194;28;20407;-69
2022/04/07 05:27:49;;;;;;;18.05;3.33;;;8.20;99.90;;;;;;5088754;28;20044;-69
2022/04/07 05:30:18;;;;;;;19.05;3.08;;;8.10;99.90;;;;;;5074234;28;20559;-67
2022/04/07 05:32:44;;;;;;;12.95;2.45;;;8.00;99.90;;;;;;5080515;28;20040;-68
2022/04/07 05:35:15;;;;;;;9.27;2.00;;;7.90;99.90;;;;;;5085369;28;20063;-68
2022/04/07 05:37:41;;;;;;;14.25;2.40;;;7.60;99.90;;;;;;5086106;28;20107;-66
2022/04/07 05:40:10;;;;;;;18.15;2.50;;;7.30;99.90;;;;;;5086911;28;20106;-67
2022/04/07 05:42:36;;;;;;;8.50;1.90;;;7.10;99.90;;;;;;5087997;28;20058;-67
2022/04/07 05:45:03;;;;;;;11.30;2.10;;;6.90;99.90;;;;;;5073921;28;20127;-66
2022/04/07 05:47:41;;;;;;;16.08;2.42;;;6.80;99.90;;;;;;5091018;28;20082;-67
2022/04/07 05:50:08;;;;;;;21.90;3.17;;;7.40;99.90;;;;;;5082019;28;20040;-68
2022/04/07 05:52:34;;;;;;;18.05;2.55;;;6.70;99.90;;;;;;5093101;28;20052;-66
2022/04/07 05:55:04;;;;;;;13.50;2.58;;;6.60;99.90;;;;;;5083092;28;20036;-68
2022/04/07 05:57:39;;;;;;;17.15;2.95;;;6.60;99.90;;;;;;5078799;28;20044;-71
2022/04/07 06:00:05;;;;;;;17.67;2.95;;;6.60;99.90;;;;;;5100156;28;20068;-69
2022/04/07 06:02:31;;;;;;;22.85;2.60;;;6.50;99.90;;;;;;5071882;28;20073;-68
2022/04/07 06:04:57;;;;;;;13.93;2.70;;;6.50;99.90;;;;;;5076751;28;20044;-67
2022/04/07 06:07:23;;;;;;;13.18;2.67;;;6.40;99.90;;;;;;5083594;28;20056;-68
2022/04/07 06:09:49;;;;;;;14.95;2.63;;;6.40;99.90;;;;;;5087017;28;20043;-68
2022/04/07 06:12:15;;;;;;;10.25;2.60;;;6.30;99.90;;;;;;5075903;28;20459;-68
2022/04/07 06:14:41;;;;;;;11.57;2.05;;;6.20;99.90;;;;;;5081552;28;20048;-68
2022/04/07 06:17:06;;;;;;;16.67;3.03;;;6.20;99.90;;;;;;5082884;28;20040;-67
2022/04/07 06:19:32;;;;;;;22.70;2.60;;;6.10;99.90;;;;;;5082165;28;20036;-67
2022/04/07 06:21:58;;;;;;;12.38;2.53;;;6.30;99.90;;;;;;5074533;28;20090;-67
2022/04/07 06:24:23;;;;;;;12.18;1.85;;;6.00;99.90;;;;;;5089694;28;20044;-67
2022/04/07 06:26:49;;;;;;;7.70;1.80;;;5.90;99.90;;;;;;5090753;28;20474;-67
2022/04/07 06:29:15;;;;;;;10.10;1.77;;;5.90;99.90;;;;;;5092899;28;20044;-67
2022/04/07 06:31:41;;;;;;;7.43;2.00;;;5.80;99.90;;;;;;5092035;28;20541;-66
2022/04/07 06:34:07;;;;;;;7.55;2.03;;;5.70;99.90;;;;;;5085863;28;20036;-66
2022/04/07 06:36:32;;;;;;;15.23;3.05;;;5.70;99.90;;;;;;5092190;28;20052;-66
2022/04/07 06:39:13;;;;;;;6.00;1.58;;;5.70;99.90;;;;;;5089473;28;20044;-67
2022/04/07 06:41:39;;;;;;;7.43;1.60;;;5.60;99.90;;;;;;5075161;28;20071;-66
2022/04/07 06:44:05;;;;;;;3.83;1.50;;;5.60;99.90;;;;;;5075468;28;20040;-65
2022/04/07 06:46:32;;;;;;;13.23;1.55;;;5.60;99.90;;;;;;5075871;28;20552;-66
2022/04/07 06:48:59;;;;;;;6.25;1.40;;;5.60;99.90;;;;;;5076128;28;20045;-66
2022/04/07 06:51:24;;;;;;;6.53;1.48;;;5.60;99.90;;;;;;5093500;28;20082;-66
2022/04/07 06:53:50;;;;;;;7.55;1.35;;;5.60;99.90;;;;;;5096106;28;20059;-65
2022/04/07 06:56:16;;;;;;;12.48;1.85;;;5.60;99.90;;;;;;5092999;28;20036;-65
2022/04/07 06:58:41;;;;;;;5.82;1.55;;;5.60;99.90;;;;;;5084801;28;20032;-67
2022/04/07 07:01:08;;;;;;;9.00;1.52;;;6.00;99.90;;;;;;5088981;28;20397;-65
2022/04/07 07:03:35;;;;;;;6.68;1.98;;;5.60;99.90;;;;;;5090184;28;20056;-67
2022/04/07 07:06:00;;;;;;;9.77;1.63;;;5.60;99.90;;;;;;5087622;28;20032;-65
2022/04/07 07:08:26;;;;;;;5.55;1.58;;;5.60;99.90;;;;;;5090253;28;20045;-66
2022/04/07 07:10:52;;;;;;;5.72;2.05;;;5.60;99.90;;;;;;5092537;28;20413;-65
2022/04/07 07:13:23;;;;;;;11.23;1.60;;;5.60;99.90;;;;;;5089311;28;20040;-65
2022/04/07 07:15:49;;;;;;;5.90;1.70;;;5.70;99.90;;;;;;5079823;28;20040;-66
2022/04/07 07:18:16;;;;;;;9.98;1.50;;;5.70;99.90;;;;;;5073940;28;20040;-66
2022/04/07 07:20:41;;;;;;;6.65;1.92;;;5.70;99.90;;;;;;5075247;28;20046;-66
2022/04/07 07:23:07;;;;;;;6.70;1.60;;;5.80;99.90;;;;;;5078717;28;20045;-66
2022/04/07 07:25:34;;;;;;;5.97;1.25;;;5.70;99.90;;;;;;5089056;28;20482;-66
2022/04/07 07:28:01;;;;;;;7.85;1.65;;;5.80;99.90;;;;;;5080213;28;20041;-65
2022/04/07 07:30:28;;;;;;;4.65;1.38;;;5.80;99.90;;;;;;5093807;28;20113;-64
2022/04/07 07:32:54;;;;;;;5.93;1.25;;;5.80;99.90;;;;;;5079344;28;20132;-67
2022/04/07 07:35:21;;;;;;;11.60;1.63;;;5.80;99.90;;;;;;5091979;28;20131;-66
2022/04/07 07:37:55;;;;;;;4.85;1.27;;;5.80;99.90;;;;;;5089158;28;20043;-67
2022/04/07 07:40:24;;;;;;;11.57;1.85;;;5.90;99.90;;;;;;5092078;28;20052;-65
2022/04/07 07:42:57;;;;;;;9.57;1.80;;;5.90;99.90;;;;;;5087039;28;20044;-67
2022/04/07 07:45:28;;;;;;;5.72;1.55;;;5.90;99.90;;;;;;5076383;28;20066;-66
2022/04/07 07:47:54;;;;;;;8.80;1.67;;;5.90;99.90;;;;;;5083351;28;20075;-66
2022/04/07 07:50:21;;;;;;;8.25;1.50;;;5.90;99.90;;;;;;5075502;28;20068;-66
2022/04/07 07:52:47;;;;;;;6.93;1.65;;;5.90;99.90;;;;;;5087619;28;20482;-66
2022/04/07 07:55:13;;;;;;;7.47;1.45;;;6.00;99.90;;;;;;5071539;28;20037;-65
2022/04/07 07:57:39;;;;;;;5.70;1.30;;;6.00;99.90;;;;;;5074405;28;20041;-66
2022/04/07 08:00:07;;;;;;;4.93;1.33;;;6.50;99.90;;;;;;5082623;28;20091;-65
2022/04/07 08:02:34;;;;;;;11.25;1.50;;;6.10;99.90;;;;;;5058247;28;20097;-66
2022/04/07 08:05:01;;;;;;;8.15;1.73;;;6.20;99.90;;;;;;5073900;28;20048;-66
2022/04/07 08:07:27;;;;;;;13.02;2.15;;;6.50;99.90;;;;;;5083919;28;20048;-64
2022/04/07 08:09:56;;;;;;;7.20;1.42;;;6.90;99.90;;;;;;5074048;28;20477;-66
2022/04/07 08:12:26;;;;;;;4.32;1.50;;;7.00;99.90;;;;;;5085466;28;20535;-67
2022/04/07 08:14:52;;;;;;;9.32;1.60;;;7.00;99.90;;;;;;5090551;28;20036;-66
2022/04/07 08:17:21;;;;;;;8.07;1.70;;;7.00;99.90;;;;;;5074639;28;20045;-66
2022/04/07 08:19:47;;;;;;;6.47;1.60;;;7.00;99.90;;;;;;5073760;28;20574;-65
2022/04/07 08:22:13;;;;;;;11.60;2.25;;;7.10;99.90;;;;;;5089090;28;20040;-67
2022/04/07 08:24:39;;;;;;;4.57;1.70;;;7.30;99.90;;;;;;5074241;28;20124;-65
2022/04/07 08:27:05;;;;;;;8.13;2.08;;;7.50;99.90;;;;;;5089679;28;20198;-67
2022/04/07 08:29:31;;;;;;;4.85;1.60;;;7.70;99.90;;;;;;5093510;28;20048;-67
2022/04/07 08:31:58;;;;;;;5.20;1.27;;;7.90;99.90;;;;;;5086186;28;20123;-66
2022/04/07 08:34:25;;;;;;;7.82;1.42;;;8.10;99.90;;;;;;5091825;28;20039;-65
2022/04/07 08:36:51;;;;;;;5.45;1.50;;;8.40;99.90;;;;;;5093562;28;20073;-65
2022/04/07 08:39:20;;;;;;;8.40;2.10;;;8.30;99.90;;;;;;5090640;28;20040;-67
2022/04/07 08:41:47;;;;;;;8.95;1.63;;;8.50;99.90;;;;;;5089858;28;20117;-67
2022/04/07 08:44:15;;;;;;;5.80;1.52;;;8.70;99.90;;;;;;5080879;28;20047;-67
2022/04/07 08:46:48;;;;;;;5.10;1.40;;;8.90;99.90;;;;;;5071747;28;20085;-65
2022/04/07 08:49:15;;;;;;;12.32;1.85;;;9.10;99.90;;;;;;5077967;28;20119;-67
2022/04/07 08:51:41;;;;;;;9.43;1.75;;;9.30;99.90;;;;;;5073077;28;20048;-65
2022/04/07 08:54:12;;;;;;;8.00;1.60;;;9.50;99.90;;;;;;5082141;28;20505;-65
2022/04/07 08:56:38;;;;;;;6.75;1.63;;;9.50;99.90;;;;;;5073787;28;20453;-67
2022/04/07 08:59:04;;;;;;;10.20;1.92;;;9.60;99.90;;;;;;5084598;28;20044;-66
2022/04/07 09:01:30;;;;;;;7.65;1.90;;;9.70;99.90;;;;;;5087631;28;20437;-66
2022/04/07 09:03:55;;;;;;;15.77;2.40;;;9.90;99.90;;;;;;5092517;28;20093;-66
2022/04/07 09:06:23;;;;;;;14.57;2.42;;;10.00;99.90;;;;;;5079352;28;20040;-65
2022/04/07 09:08:48;;;;;;;11.97;2.23;;;10.10;99.90;;;;;;5080796;28;20122;-68
2022/04/07 09:11:17;;;;;;;11.18;2.10;;;10.10;99.90;;;;;;5084618;28;20791;-66
2022/04/07 09:13:45;;;;;;;11.18;1.92;;;10.20;99.90;;;;;;5091857;28;20119;-65
2022/04/07 09:16:15;;;;;;;6.10;1.70;;;10.00;99.90;;;;;;5083573;28;20075;-67
2022/04/07 09:18:43;;;;;;;11.98;2.15;;;9.80;99.90;;;;;;5093056;28;20033;-66
2022/04/07 09:21:18;;;;;;;10.13;2.03;;;9.70;99.90;;;;;;5091103;28;20044;-66
2022/04/07 09:23:44;;;;;;;13.43;2.42;;;9.70;99.90;;;;;;5090756;28;20040;-66
2022/04/07 09:26:14;;;;;;;11.15;2.20;;;9.80;99.90;;;;;;5086328;28;20048;-65
2022/04/07 09:28:41;;;;;;;9.25;2.40;;;10.00;99.90;;;;;;5081163;28;20052;-66
2022/04/07 09:31:10;;;;;;;12.43;2.13;;;10.10;99.90;;;;;;5084877;28;20386;-65
2022/04/07 09:33:36;;;;;;;7.35;1.73;;;10.20;99.90;;;;;;5083511;28;20056;-66
2022/04/07 09:36:19;;;;;;;12.00;2.42;;;10.20;99.90;;;;;;5088113;28;20495;-66
2022/04/07 09:38:53;;;;;;;11.98;2.78;;;10.20;99.90;;;;;;5086771;28;20542;-65
2022/04/07 09:41:19;;;;;;;8.80;2.13;;;10.30;99.90;;;;;;5072291;28;20501;-66
2022/04/07 09:43:47;;;;;;;14.65;2.83;;;10.30;99.90;;;;;;5071174;28;20052;-65
2022/04/07 09:46:22;;;;;;;14.38;2.20;;;10.30;99.90;;;;;;5086380;28;20043;-65
2022/04/07 09:49:00;;;;;;;11.27;2.38;;;10.30;99.90;;;;;;5073531;28;20044;-65
2022/04/07 09:51:27;;;;;;;10.98;2.10;;;10.20;99.90;;;;;;5072558;28;20429;-67
2022/04/07 09:53:57;;;;;;;7.75;2.42;;;10.40;99.90;;;;;;5075732;28;20055;-66
2022/04/07 09:56:27;;;;;;;15.45;2.20;;;10.10;99.90;;;;;;5072846;28;20502;-66
2022/04/07 09:58:54;;;;;;;9.65;2.00;;;9.90;99.90;;;;;;5084408;28;20078;-66
2022/04/07 10:01:20;;;;;;;12.73;2.08;;;9.80;99.90;;;;;;5079996;28;20044;-66
2022/04/07 10:03:49;;;;;;;11.82;2.33;;;9.70;99.90;;;;;;5069939;28;20060;-66
2022/04/07 10:06:16;;;;;;;11.02;2.45;;;9.50;99.90;;;;;;5074353;28;20585;-66
2022/04/07 10:08:42;;;;;;;8.57;1.70;;;9.30;99.90;;;;;;5087555;28;20101;-66
2022/04/07 10:11:09;;;;;;;15.90;2.15;;;9.10;99.90;;;;;;5080922;28;20048;-66
2022/04/07 10:13:37;;;;;;;15.13;2.92;;;8.90;99.90;;;;;;5088141;28;20048;-66
2022/04/07 10:16:04;;;;;;;14.23;2.50;;;8.40;99.90;;;;;;5084521;28;20040;-68
2022/04/07 10:18:36;;;;;;;21.70;2.95;;;8.40;99.90;;;;;;5074436;28;20047;-65
2022/04/07 10:21:04;;;;;;;14.18;2.45;;;8.70;99.90;;;;;;5092933;28;20047;-66
2022/04/07 10:23:32;;;;;;;12.15;2.60;;;8.90;99.90;;;;;;5090642;28;20126;-67
2022/04/07 10:26:03;;;;;;;16.52;3.13;;;9.00;99.90;;;;;;5091024;28;20132;-65
2022/04/07 10:28:29;;;;;;;6.80;1.70;;;9.00;99.90;;;;;;5081523;28;20051;-67
2022/04/07 10:30:55;;;;;;;11.35;2.38;;;8.80;99.90;;;;;;5077786;28;20059;-66
2022/04/07 10:33:33;;;;;;;7.50;1.92;;;8.50;99.90;;;;;;5074690;28;20044;-67
2022/04/07 10:35:59;;;;;;;9.57;2.20;;;8.20;99.90;;;;;;5089429;28;20064;-66
2022/04/07 10:38:40;;;;;;;11.85;2.28;;;7.80;99.90;;;;;;5089172;28;20062;-65
2022/04/07 10:41:06;;;;;;;20.90;3.13;;;7.50;99.90;;;;;;5081643;28;20045;-64
2022/04/07 10:43:31;;;;;;;16.08;2.28;;;7.50;99.90;;;;;;5082115;28;20055;-69
2022/04/07 10:46:06;;;;;;;18.05;3.42;;;7.80;99.90;;;;;;5082486;28;20387;-65
2022/04/07 10:48:44;;;;;;;10.77;2.90;;;8.60;99.90;;;;;;5092571;28;20177;-66
2022/04/07 10:51:11;;;;;;;14.60;2.67;;;8.10;99.90;;;;;;5072323;28;20405;-66
2022/04/07 10:53:51;;;;;;;17.58;2.67;;;8.10;99.90;;;;;;5091210;28;20564;-66
2022/04/07 10:56:25;;;;;;;12.70;3.03;;;8.10;99.90;;;;;;5092220;28;20052;-66
2022/04/07 10:58:58;;;;;;;16.08;2.88;;;7.90;99.90;;;;;;5084068;28;20128;-68
2022/04/07 11:01:42;;;;;;;12.30;2.88;;;7.90;99.90;;;;;;5087477;28;20402;-67
2022/04/07 11:04:23;;;;;;;16.63;2.65;;;7.80;99.90;;;;;;5089899;28;20060;-66
2022/04/07 11:07:15;;;;;;;18.85;2.75;;;8.00;99.90;;;;;;5075288;28;20044;-66
2022/04/07 11:09:41;;;;;;;20.45;2.90;;;8.10;99.90;;;;;;5084048;28;20048;-67
2022/04/07 11:12:15;;;;;;;20.88;3.13;;;8.30;99.90;;;;;;5085136;28;20074;-65
2022/04/07 11:14:46;;;;;;;14.20;3.03;;;8.50;99.90;;;;;;5088014;28;20052;-67
2022/04/07 11:17:33;;;;;;;19.20;3.33;;;8.80;99.90;;;;;;5083538;28;20055;-66
2022/04/07 11:20:20;;;;;;;20.23;3.88;;;8.80;99.90;;;;;;5073720;28;20441;-65
2022/04/07 11:22:58;;;;;;;18.10;3.08;;;9.10;99.90;;;;;;5071102;28;20056;-65
2022/04/07 11:25:35;;;;;;;20.58;3.53;;;9.10;99.90;;;;;;5076968;28;20086;-67
2022/04/07 11:28:19;;;;;;;18.17;2.78;;;9.50;99.90;;;;;;5088487;28;20136;-66
2022/04/07 11:30:53;;;;;;;15.80;3.20;;;9.70;99.90;;;;;;5077192;28;20445;-68
2022/04/07 11:33:19;;;;;;;16.58;3.83;;;9.80;99.90;;;;;;5082394;28;20093;-67
2022/04/07 11:36:06;;;;;;;13.40;2.72;;;9.80;99.90;;;;;;5091166;28;20459;-66
2022/04/07 11:38:35;;;;;;;18.63;3.38;;;9.60;99.90;;;;;;5074291;28;20422;-67
2022/04/07 11:41:21;;;;;;;18.05;3.60;;;9.70;99.90;;;;;;5084041;28;20040;-66
2022/04/07 11:43:49;;;;;;;13.60;3.03;;;9.60;99.90;;;;;;5073983;28;20051;-65
2022/04/07 11:46:30;;;;;;;18.80;3.80;;;9.40;99.90;;;;;;5083953;28;20514;-66
2022/04/07 11:48:57;;;;;;;19.13;3.20;;;9.40;99.90;;;;;;5073030;28;20044;-66
2022/04/07 11:51:24;;;;;;;19.45;3.60;;;9.30;99.90;;;;;;5090653;28;20055;-65
2022/04/07 11:53:54;;;;;;;10.35;2.83;;;9.30;99.90;;;;;;5088393;28;20044;-66
2022/04/07 11:56:27;;;;;;;15.45;2.92;;;9.30;99.90;;;;;;5085312;28;20572;-66
2022/04/07 11:58:57;;;;;;;18.25;3.40;;;9.30;99.90;;;;;;5081446;28;20699;-68
2022/04/07 12:01:23;;;;;;;12.88;2.97;;;9.30;99.90;;;;;;5082147;28;20090;-66
2022/04/07 12:03:53;;;;;;;14.57;2.78;;;9.40;99.90;;;;;;5083112;28;20057;-66
2022/04/07 12:06:23;;;;;;;12.25;2.67;;;9.50;99.90;;;;;;5085138;28;20040;-65
2022/04/07 12:08:51;;;;;;;17.33;3.53;;;9.60;99.90;;;;;;5070453;28;20612;-66
2022/04/07 12:11:19;;;;;;;13.05;2.88;;;9.70;99.90;;;;;;5083790;28;20076;-65
2022/04/07 12:13:45;;;;;;;11.85;2.55;;;10.70;99.90;;;;;;5056764;28;20112;-68
2022/04/07 12:16:11;;;;;;;18.15;3.33;;;11.00;99.90;;;;;;5073071;28;20202;-65
2022/04/07 12:18:38;;;;;;;12.48;2.88;;;11.50;99.90;;;;;;5084556;28;20049;-65
2022/04/07 12:21:09;;;;;;;11.63;2.22;;;11.50;99.90;;;;;;5077975;28;20113;-67
2022/04/07 12:23:38;;;;;;;15.60;2.47;;;11.40;99.90;;;;;;5078381;28;20043;-68
2022/04/07 12:26:10;;;;;;;11.60;2.53;;;11.40;99.90;;;;;;5080665;28;20131;-67
2022/04/07 12:28:40;;;;;;;14.40;2.75;;;10.80;99.90;;;;;;5075588;28;20123;-67
2022/04/07 12:31:13;;;;;;;9.45;2.40;;;10.30;99.90;;;;;;5078419;28;20532;-66
2022/04/07 12:33:44;;;;;;;14.25;2.40;;;9.80;99.90;;;;;;5078667;28;20044;-69
2022/04/07 12:36:36;;;;;;;5.57;1.60;;;8.90;99.90;;;;;;5074563;28;20052;-67
2022/04/07 12:39:08;;;;;;;5.47;1.33;;;7.90;99.90;;;;;;5076733;28;20053;-68
2022/04/07 12:41:39;;;;;;;6.63;1.70;;;7.20;99.90;;;;;;5079309;28;20063;-68
2022/04/07 12:44:07;;;;;;;10.18;1.90;;;7.10;99.90;;;;;;5087064;28;20044;-67
2022/04/07 12:46:44;;;;;;;19.17;3.72;;;7.40;99.90;;;;;;5077144;28;20047;-67
2022/04/07 12:49:09;;;;;;;12.75;2.42;;;8.20;99.90;;;;;;5083365;28;20130;-67
2022/04/07 12:51:40;;;;;;;13.82;2.38;;;9.10;99.90;;;;;;5078138;28;20052;-65
2022/04/07 12:54:17;;;;;;;18.30;2.75;;;10.00;99.90;;;;;;5076592;28;20517;-66